Time;durP1;ratioP1;P1;durP2;ratioP2;P2;SDS_P1;SDS_P2;PMS_P1;PMS_P2;Temp;Humidity;BMP_temperature;BMP_pressure;BME280_temperature;BME280_humidity;BME280_pressure;Samples;Min_cycle;Max_cycle;Signal;HPM_P1;HPM_P2
2023/10/07 00:01:24;;;;;;;45.25;42.47;;;14.40;99.90;;;;;;4963693;28;20039;-72
2023/10/07 00:03:54;;;;;;;47.87;44.87;;;14.40;99.90;;;;;;4973892;28;20046;-72
2023/10/07 00:06:27;;;;;;;53.88;50.55;;;14.40;99.90;;;;;;4964372;28;20027;-72
2023/10/07 00:08:53;;;;;;;54.67;50.90;;;14.30;99.90;;;;;;4955184;28;20416;-72
2023/10/07 00:11:19;;;;;;;53.95;50.78;;;14.30;99.90;;;;;;4963568;28;20042;-72
2023/10/07 00:13:47;;;;;;;49.47;46.38;;;14.30;99.90;;;;;;4972528;28;20391;-72
2023/10/07 00:16:17;;;;;;;47.55;44.72;;;14.30;99.90;;;;;;4964079;28;20050;-72
2023/10/07 00:18:45;;;;;;;51.55;48.10;;;14.40;99.90;;;;;;4954968;28;20043;-72
2023/10/07 00:21:25;;;;;;;49.88;46.33;;;14.40;99.90;;;;;;4958793;28;20530;-72
2023/10/07 00:23:53;;;;;;;42.78;40.10;;;14.30;99.90;;;;;;4954714;28;20039;-72
2023/10/07 00:26:19;;;;;;;41.58;39.08;;;14.30;99.90;;;;;;4959731;28;20057;-71
2023/10/07 00:28:54;;;;;;;43.67;40.78;;;14.30;99.90;;;;;;4973350;28;20045;-72
2023/10/07 00:31:27;;;;;;;40.33;37.90;;;14.20;99.90;;;;;;4972714;28;20043;-72
2023/10/07 00:34:04;;;;;;;44.53;41.75;;;14.20;99.90;;;;;;4973489;28;20047;-72
2023/10/07 00:39:00;;;;;;;37.30;35.03;;;14.10;99.90;;;;;;4976249;28;20042;-72
2023/10/07 00:41:29;;;;;;;43.75;41.08;;;14.20;99.90;;;;;;4972608;28;20475;-72
2023/10/07 00:44:00;;;;;;;41.22;38.35;;;14.10;99.90;;;;;;4957157;28;20484;-72
2023/10/07 00:46:28;;;;;;;40.47;38.08;;;14.00;99.90;;;;;;4963609;28;20042;-72
2023/10/07 00:48:59;;;;;;;41.42;38.45;;;14.00;99.90;;;;;;4973476;28;20046;-71
2023/10/07 00:51:34;;;;;;;38.67;36.28;;;14.00;99.90;;;;;;4961575;28;20040;-72
2023/10/07 00:54:15;;;;;;;40.25;37.67;;;14.00;99.90;;;;;;4967902;28;20051;-71
2023/10/07 00:56:43;;;;;;;40.50;37.95;;;14.10;99.90;;;;;;4978117;28;20035;-72
2023/10/07 00:59:10;;;;;;;43.90;41.20;;;14.00;99.90;;;;;;4973537;28;20054;-71
2023/10/07 01:01:36;;;;;;;44.70;41.83;;;14.00;99.90;;;;;;4971225;28;20050;-71
2023/10/07 01:04:06;;;;;;;47.15;44.15;;;13.90;99.90;;;;;;4973110;28;20054;-72
2023/10/07 01:06:38;;;;;;;41.85;39.22;;;13.90;99.90;;;;;;4966091;28;20051;-71
2023/10/07 01:09:22;;;;;;;41.13;38.50;;;14.00;99.90;;;;;;4973474;28;20496;-71
2023/10/07 01:11:57;;;;;;;34.15;31.90;;;14.00;99.90;;;;;;4972780;28;20027;-72
2023/10/07 01:14:33;;;;;;;36.95;34.50;;;14.00;99.90;;;;;;4963975;28;20040;-71
2023/10/07 01:17:00;;;;;;;35.25;32.90;;;14.00;99.90;;;;;;4967148;28;20049;-72
2023/10/07 01:21:56;;;;;;;40.33;37.75;;;14.10;99.90;;;;;;4979232;28;20487;-72
2023/10/07 01:24:33;;;;;;;34.70;32.60;;;13.90;99.90;;;;;;4963690;28;20041;-72
2023/10/07 01:27:04;;;;;;;30.67;28.48;;;14.00;99.90;;;;;;4962637;28;20039;-72
2023/10/07 01:29:30;;;;;;;31.85;29.52;;;13.90;99.90;;;;;;4954480;28;20047;-72
2023/10/07 01:31:59;;;;;;;33.65;31.30;;;13.90;99.90;;;;;;4967050;28;20045;-71
2023/10/07 01:34:34;;;;;;;33.95;31.55;;;13.90;99.90;;;;;;4973135;28;20036;-72
2023/10/07 01:37:02;;;;;;;34.75;32.10;;;13.90;99.90;;;;;;4958817;28;20043;-71
2023/10/07 01:39:31;;;;;;;40.00;37.35;;;13.90;99.90;;;;;;4954365;28;20388;-72
2023/10/07 01:42:01;;;;;;;37.40;34.83;;;13.90;99.90;;;;;;4967918;28;20050;-72
2023/10/07 01:44:31;;;;;;;40.30;37.67;;;13.90;99.90;;;;;;4969827;28;20038;-72
2023/10/07 01:46:58;;;;;;;44.08;41.25;;;13.80;99.90;;;;;;4967490;28;20035;-71
2023/10/07 01:49:24;;;;;;;44.85;41.92;;;13.70;99.90;;;;;;4972524;28;20042;-72
2023/10/07 01:51:52;;;;;;;43.00;40.33;;;13.70;99.90;;;;;;4960217;28;20050;-72
2023/10/07 01:54:20;;;;;;;38.40;35.88;;;13.70;99.90;;;;;;4957105;28;20043;-72
2023/10/07 01:56:52;;;;;;;37.65;35.25;;;13.70;99.90;;;;;;4969074;28;20492;-72
2023/10/07 01:59:18;;;;;;;37.25;34.72;;;13.80;99.90;;;;;;4976539;28;20038;-72
2023/10/07 02:01:58;;;;;;;33.83;31.50;;;13.70;99.90;;;;;;4975397;28;20031;-72
2023/10/07 02:04:27;;;;;;;36.00;33.65;;;13.70;99.90;;;;;;4976062;28;20046;-72
2023/10/07 02:06:58;;;;;;;31.50;29.35;;;13.70;99.90;;;;;;4975410;28;20034;-72
2023/10/07 02:09:25;;;;;;;31.08;28.88;;;13.60;99.90;;;;;;4975991;28;20047;-72
2023/10/07 02:11:55;;;;;;;32.17;29.88;;;13.60;99.90;;;;;;4975478;28;20050;-72
2023/10/07 02:14:24;;;;;;;31.15;28.95;;;13.60;99.90;;;;;;4976778;28;20041;-72
2023/10/07 02:16:56;;;;;;;29.42;27.35;;;13.70;99.90;;;;;;4974459;28;20506;-72
2023/10/07 02:19:29;;;;;;;28.08;26.08;;;13.70;99.90;;;;;;4976231;28;20045;-71
2023/10/07 02:21:59;;;;;;;28.92;27.02;;;13.70;99.90;;;;;;4975722;28;20369;-72
2023/10/07 02:24:31;;;;;;;35.65;33.35;;;13.70;99.90;;;;;;4958839;28;20047;-72
2023/10/07 02:27:04;;;;;;;28.73;26.77;;;13.70;99.90;;;;;;4965431;28;20028;-71
2023/10/07 02:29:31;;;;;;;30.05;27.88;;;13.70;99.90;;;;;;4956412;28;20058;-72
2023/10/07 02:32:14;;;;;;;32.90;30.65;;;13.60;99.90;;;;;;4969735;28;20038;-72
2023/10/07 02:34:53;;;;;;;27.30;25.30;;;13.60;99.90;;;;;;4975651;28;20062;-72
2023/10/07 02:37:25;;;;;;;28.63;26.73;;;13.50;99.90;;;;;;4957818;28;20047;-72
2023/10/07 02:39:56;;;;;;;31.08;29.00;;;13.50;99.90;;;;;;4987119;28;20047;-72
2023/10/07 02:42:24;;;;;;;29.05;26.67;;;13.40;99.90;;;;;;4973936;28;20591;-72
2023/10/07 02:45:01;;;;;;;28.48;26.38;;;13.40;99.90;;;;;;4971212;28;20046;-72
2023/10/07 02:47:31;;;;;;;30.38;28.27;;;13.50;99.90;;;;;;4963794;28;20039;-72
2023/10/07 02:50:00;;;;;;;32.60;30.33;;;13.40;99.90;;;;;;4955913;28;20055;-72
2023/10/07 02:52:39;;;;;;;43.88;41.05;;;13.40;99.90;;;;;;4972792;28;20289;-71
2023/10/07 02:57:45;;;;;;;46.22;43.13;;;13.30;99.90;;;;;;4971215;28;20037;-72
2023/10/07 03:00:29;;;;;;;49.67;46.70;;;13.30;99.90;;;;;;4974419;28;20035;-72
2023/10/07 03:03:11;;;;;;;51.78;48.53;;;13.40;99.90;;;;;;4955729;28;20039;-71
2023/10/07 03:05:43;;;;;;;32.38;30.10;;;13.40;99.90;;;;;;4955426;28;20058;-72
2023/10/07 03:08:31;;;;;;;36.00;33.58;;;13.40;99.90;;;;;;4973754;28;20073;-72
2023/10/07 03:11:04;;;;;;;30.05;27.70;;;13.40;99.90;;;;;;4974924;28;20050;-72
2023/10/07 03:13:38;;;;;;;28.55;26.33;;;13.40;99.90;;;;;;4975116;28;20038;-72
2023/10/07 03:21:22;;;;;;;35.58;33.13;;;13.20;99.90;;;;;;4980939;28;20035;-72
2023/10/07 03:23:48;;;;;;;35.13;32.90;;;13.00;99.90;;;;;;4962325;28;20039;-72
2023/10/07 03:26:18;;;;;;;36.22;33.90;;;13.00;99.90;;;;;;4958636;28;20043;-71
2023/10/07 03:28:54;;;;;;;33.58;31.27;;;13.00;99.90;;;;;;4974783;28;20039;-72
2023/10/07 03:31:33;;;;;;;35.90;33.55;;;13.00;99.90;;;;;;4973878;28;20038;-71
2023/10/07 03:33:59;;;;;;;35.53;33.03;;;13.10;99.90;;;;;;4974669;28;20026;-72
2023/10/07 03:36:41;;;;;;;41.78;38.90;;;13.00;99.90;;;;;;4968342;28;20039;-72
2023/10/07 03:41:53;;;;;;;42.88;39.75;;;13.00;99.90;;;;;;4978145;28;20034;-71
2023/10/07 03:44:20;;;;;;;47.58;44.35;;;13.00;99.90;;;;;;4974553;28;20046;-72
2023/10/07 03:46:48;;;;;;;40.88;38.15;;;13.00;99.90;;;;;;4968145;28;20042;-72
2023/10/07 03:49:15;;;;;;;40.72;37.80;;;13.00;99.90;;;;;;4974132;28;20054;-72
2023/10/07 03:51:42;;;;;;;39.20;36.63;;;13.10;99.90;;;;;;4973611;28;20027;-72
2023/10/07 03:54:29;;;;;;;41.50;38.60;;;13.10;99.90;;;;;;4974249;28;20038;-72
2023/10/07 03:57:00;;;;;;;40.67;37.95;;;13.00;99.90;;;;;;4973314;28;20058;-71
2023/10/07 03:59:32;;;;;;;40.65;38.00;;;13.00;99.90;;;;;;4961331;28;20054;-72
2023/10/07 04:01:58;;;;;;;38.95;36.50;;;12.90;99.90;;;;;;4968861;28;20115;-72
2023/10/07 04:04:24;;;;;;;37.97;35.42;;;12.90;99.90;;;;;;4972927;28;20042;-71
2023/10/07 04:06:51;;;;;;;43.63;40.90;;;12.90;99.90;;;;;;4971455;28;20043;-72
2023/10/07 04:09:18;;;;;;;43.03;40.45;;;12.90;99.90;;;;;;4974039;28;20030;-72
2023/10/07 04:11:50;;;;;;;53.70;50.03;;;12.90;99.90;;;;;;4973378;28;20042;-72
2023/10/07 04:14:28;;;;;;;45.10;42.35;;;12.90;99.90;;;;;;4960163;28;20027;-72
2023/10/07 04:16:58;;;;;;;55.28;51.85;;;12.90;99.90;;;;;;4966913;28;20039;-71
2023/10/07 04:21:55;;;;;;;42.72;39.63;;;13.00;99.90;;;;;;4973497;28;20038;-72
2023/10/07 04:24:23;;;;;;;41.35;38.70;;;13.00;99.90;;;;;;4968786;28;20050;-72
2023/10/07 04:27:02;;;;;;;52.45;48.97;;;13.00;99.90;;;;;;4969915;28;20051;-72
2023/10/07 04:29:28;;;;;;;46.45;43.70;;;12.90;99.90;;;;;;4971543;28;20049;-72
2023/10/07 04:31:55;;;;;;;43.83;41.03;;;13.00;99.90;;;;;;4968901;28;20487;-72
2023/10/07 04:34:21;;;;;;;44.47;41.75;;;12.80;99.90;;;;;;4954645;28;20107;-72
2023/10/07 04:39:39;;;;;;;49.80;46.72;;;12.70;99.90;;;;;;4955833;28;20135;-72
2023/10/07 04:42:06;;;;;;;44.58;41.80;;;12.60;99.90;;;;;;4954382;28;20039;-72
2023/10/07 04:47:34;;;;;;;40.88;38.15;;;12.40;99.90;;;;;;4962549;28;20034;-72
2023/10/07 04:53:02;;;;;;;41.45;38.58;;;12.40;99.90;;;;;;4963600;28;20031;-72
2023/10/07 04:55:29;;;;;;;45.65;42.67;;;12.40;99.90;;;;;;4972659;28;20046;-72
2023/10/07 05:03:01;;;;;;;43.58;40.78;;;12.10;99.90;;;;;;4978065;28;20403;-72
2023/10/07 05:05:33;;;;;;;44.83;41.85;;;12.10;99.90;;;;;;4972578;28;20600;-72
2023/10/07 05:08:08;;;;;;;44.40;41.72;;;12.20;99.90;;;;;;4973021;28;20043;-72
2023/10/07 05:10:41;;;;;;;42.20;39.33;;;12.10;99.90;;;;;;4972582;28;20562;-72
2023/10/07 05:13:08;;;;;;;51.42;48.25;;;12.00;99.90;;;;;;4972965;28;20039;-72
2023/10/07 05:15:41;;;;;;;43.47;40.60;;;12.20;99.90;;;;;;4968795;28;20408;-72
2023/10/07 05:18:12;;;;;;;43.55;40.75;;;12.30;99.90;;;;;;4953930;28;20046;-71
2023/10/07 05:20:39;;;;;;;49.05;46.13;;;12.30;99.90;;;;;;4953283;28;20515;-72
2023/10/07 05:23:06;;;;;;;42.95;39.95;;;12.40;99.90;;;;;;4953946;29;20043;-71
2023/10/07 05:25:35;;;;;;;34.80;32.40;;;12.40;99.90;;;;;;4953188;28;20043;-72
2023/10/07 05:28:10;;;;;;;39.38;36.70;;;12.40;99.90;;;;;;4957086;28;20050;-72
2023/10/07 05:30:38;;;;;;;36.00;33.63;;;12.40;99.90;;;;;;4959137;28;20047;-72
2023/10/07 05:33:08;;;;;;;39.83;37.30;;;12.40;99.90;;;;;;4976460;28;20023;-71
2023/10/07 05:35:38;;;;;;;43.47;40.20;;;12.40;99.90;;;;;;4972678;28;20043;-70
2023/10/07 05:38:09;;;;;;;41.53;38.63;;;12.40;99.90;;;;;;4957306;28;20035;-72
2023/10/07 05:40:40;;;;;;;41.08;38.13;;;12.30;99.90;;;;;;4956643;28;20046;-72
2023/10/07 05:43:06;;;;;;;43.42;40.63;;;12.10;99.90;;;;;;4973245;28;20039;-71
2023/10/07 05:45:33;;;;;;;40.28;37.75;;;12.00;99.90;;;;;;4956815;28;20034;-72
2023/10/07 05:47:59;;;;;;;42.58;39.72;;;11.90;99.90;;;;;;4956638;28;20043;-72
2023/10/07 05:50:28;;;;;;;45.70;42.80;;;11.80;99.90;;;;;;4971716;28;20047;-71
2023/10/07 05:52:54;;;;;;;45.58;42.85;;;11.90;99.90;;;;;;4976444;28;20039;-71
2023/10/07 05:55:22;;;;;;;43.53;40.90;;;12.00;99.90;;;;;;4976486;28;20410;-72
2023/10/07 05:57:48;;;;;;;47.08;43.75;;;12.10;99.90;;;;;;4958536;28;20047;-71
2023/10/07 06:00:17;;;;;;;45.85;42.72;;;12.20;99.90;;;;;;4956421;28;20034;-69
2023/10/07 06:02:43;;;;;;;43.78;41.05;;;12.20;99.90;;;;;;4970721;28;20039;-72
2023/10/07 06:05:12;;;;;;;39.10;36.67;;;12.20;99.90;;;;;;4976086;28;20039;-72
2023/10/07 06:07:41;;;;;;;46.25;42.97;;;12.00;99.90;;;;;;4976074;28;20030;-71
2023/10/07 06:10:11;;;;;;;45.65;42.58;;;12.00;99.90;;;;;;4975991;28;20042;-71
2023/10/07 06:12:38;;;;;;;37.92;35.30;;;12.00;99.90;;;;;;4971805;28;20414;-71
2023/10/07 06:15:08;;;;;;;41.22;38.35;;;11.80;99.90;;;;;;4958781;28;20042;-69
2023/10/07 06:17:35;;;;;;;58.85;54.85;;;12.20;99.90;;;;;;4965940;28;20043;-72
2023/10/07 06:20:14;;;;;;;36.47;33.85;;;12.30;99.90;;;;;;4971709;28;20070;-72
2023/10/07 06:22:48;;;;;;;59.85;56.03;;;12.30;99.90;;;;;;4962271;28;20054;-72
2023/10/07 06:25:18;;;;;;;40.42;37.45;;;12.30;99.90;;;;;;4960373;28;20050;-72
2023/10/07 06:27:44;;;;;;;37.05;34.60;;;12.30;99.90;;;;;;4966464;28;20045;-72
2023/10/07 06:30:20;;;;;;;35.80;33.47;;;12.30;99.90;;;;;;4974125;28;20042;-71
2023/10/07 06:32:55;;;;;;;33.40;31.13;;;12.40;99.90;;;;;;4969220;28;20048;-71
2023/10/07 06:35:23;;;;;;;31.95;29.73;;;12.40;99.90;;;;;;4964194;28;20399;-71
2023/10/07 06:37:51;;;;;;;31.17;29.23;;;12.20;99.90;;;;;;4975318;28;20046;-70
2023/10/07 06:40:43;;;;;;;30.90;28.70;;;12.00;99.90;;;;;;4968194;28;20042;-70
2023/10/07 06:43:08;;;;;;;31.67;29.42;;;12.00;99.90;;;;;;4964346;28;20031;-71
2023/10/07 06:45:38;;;;;;;31.23;29.13;;;12.00;99.90;;;;;;4963105;28;20042;-70
2023/10/07 06:48:08;;;;;;;29.20;27.27;;;12.00;99.90;;;;;;4965118;28;20046;-71
2023/10/07 06:50:35;;;;;;;27.25;25.30;;;11.80;99.90;;;;;;4966062;28;20050;-71
2023/10/07 06:53:01;;;;;;;27.25;25.25;;;11.90;99.90;;;;;;4971877;28;20840;-68
2023/10/07 06:55:28;;;;;;;33.33;30.92;;;11.80;99.90;;;;;;4972791;28;20030;-71
2023/10/07 06:57:56;;;;;;;37.13;34.65;;;11.90;99.90;;;;;;4968004;28;20035;-71
2023/10/07 07:00:37;;;;;;;38.70;36.17;;;11.80;99.90;;;;;;4955964;28;20400;-71
2023/10/07 07:03:09;;;;;;;28.13;26.02;;;11.80;99.90;;;;;;4974839;28;20480;-72
2023/10/07 07:05:35;;;;;;;28.58;26.60;;;11.60;99.90;;;;;;4971609;28;20090;-71
2023/10/07 07:08:05;;;;;;;48.13;45.15;;;11.60;99.90;;;;;;4956751;28;20027;-71
2023/10/07 07:10:31;;;;;;;66.55;62.40;;;11.80;99.90;;;;;;4959661;28;20038;-71
2023/10/07 07:13:04;;;;;;;35.83;33.25;;;12.00;99.90;;;;;;4970990;28;20365;-71
2023/10/07 07:15:36;;;;;;;38.17;35.55;;;11.90;99.90;;;;;;4973666;28;20808;-71
2023/10/07 07:18:14;;;;;;;38.72;35.92;;;11.90;99.90;;;;;;4973622;28;20392;-71
2023/10/07 07:23:40;;;;;;;21.02;19.33;;;12.30;99.90;;;;;;4953520;28;20047;-71
2023/10/07 07:26:10;;;;;;;22.00;20.20;;;12.30;99.90;;;;;;4951916;29;20043;-72
2023/10/07 07:28:42;;;;;;;24.00;21.63;;;12.40;99.90;;;;;;4952872;29;20086;-71
2023/10/07 07:31:18;;;;;;;49.33;45.75;;;12.50;99.90;;;;;;4943666;29;20047;-71
2023/10/07 07:33:50;;;;;;;56.25;52.28;;;12.70;99.90;;;;;;4933206;29;20063;-71
2023/10/07 07:39:06;;;;;;;69.63;65.53;;;12.80;99.90;;;;;;4953137;28;20042;-70
2023/10/07 07:41:35;;;;;;;38.92;36.15;;;13.10;99.90;;;;;;4951868;29;20047;-71
2023/10/07 07:44:02;;;;;;;20.13;18.33;;;13.30;99.90;;;;;;4933724;29;20043;-70
2023/10/07 07:49:06;;;;;;;25.83;23.90;;;13.40;99.90;;;;;;4936624;29;20039;-71
2023/10/07 07:51:40;;;;;;;28.20;25.90;;;13.60;99.90;;;;;;4941024;29;20047;-71
2023/10/07 07:54:06;;;;;;;26.33;24.55;;;13.80;99.90;;;;;;4951715;29;20039;-71
2023/10/07 07:56:36;;;;;;;22.55;20.95;;;13.80;99.90;;;;;;4951509;29;20035;-71
2023/10/07 07:59:13;;;;;;;22.70;20.90;;;13.90;99.90;;;;;;4951673;29;20042;-71
2023/10/07 08:01:52;;;;;;;23.00;21.08;;;13.90;99.90;;;;;;4970941;28;20034;-71
2023/10/07 08:04:19;;;;;;;21.48;19.98;;;14.00;99.90;;;;;;4973853;28;20038;-71
2023/10/07 08:06:47;;;;;;;20.88;19.33;;;14.10;99.90;;;;;;4960924;28;20043;-72
2023/10/07 08:09:14;;;;;;;22.67;20.98;;;14.20;99.90;;;;;;4954235;28;20043;-71
2023/10/07 08:11:40;;;;;;;39.35;36.47;;;14.30;99.90;;;;;;4957138;28;20055;-72
2023/10/07 08:14:10;;;;;;;42.45;39.85;;;14.50;99.90;;;;;;4966130;28;20030;-72
2023/10/07 08:16:51;;;;;;;54.35;51.20;;;14.80;99.90;;;;;;4963546;28;20400;-72
2023/10/07 08:19:20;;;;;;;36.03;33.55;;;15.00;99.90;;;;;;4982888;28;20077;-72
2023/10/07 08:21:51;;;;;;;82.90;78.10;;;15.20;99.90;;;;;;4960503;28;20051;-69
2023/10/07 08:24:20;;;;;;;;;;;15.40;99.90;;;;;;4970468;28;20039;-71
2023/10/07 08:26:55;;;;;;;39.53;36.90;;;15.40;99.90;;;;;;4973199;28;19910;-72
2023/10/07 08:29:32;;;;;;;40.10;37.78;;;15.50;99.90;;;;;;4954615;28;20408;-72
2023/10/07 08:32:13;;;;;;;43.00;40.38;;;15.70;99.90;;;;;;4961768;28;20081;-72
2023/10/07 08:34:39;;;;;;;90.45;85.53;;;15.80;99.90;;;;;;4958096;28;20035;-72
2023/10/07 08:37:14;;;;;;;75.85;71.38;;;16.00;99.90;;;;;;4958027;28;20051;-72
2023/10/07 08:39:44;;;;;;;79.82;75.57;;;16.00;99.90;;;;;;4954062;28;20050;-72
2023/10/07 08:42:24;;;;;;;75.35;71.30;;;16.00;99.90;;;;;;4965279;28;20047;-72
2023/10/07 08:44:53;;;;;;;87.43;82.43;;;16.20;99.90;;;;;;4954479;28;20035;-72
2023/10/07 08:47:21;;;;;;;78.45;74.22;;;16.20;99.90;;;;;;4936872;28;20066;-72
2023/10/07 08:49:48;;;;;;;102.85;97.10;;;16.30;99.90;;;;;;4934112;29;20032;-72
2023/10/07 08:52:16;;;;;;;102.97;97.43;;;16.30;99.90;;;;;;4935167;29;20059;-72
2023/10/07 08:54:44;;;;;;;101.53;96.03;;;16.40;99.90;;;;;;4933944;29;20031;-72
2023/10/07 08:57:16;;;;;;;95.85;90.65;;;16.40;99.90;;;;;;4934646;29;20052;-71
2023/10/07 08:59:59;;;;;;;107.43;101.68;;;16.60;99.90;;;;;;4933374;29;20035;-72
2023/10/07 09:02:30;;;;;;;83.60;79.25;;;16.70;99.90;;;;;;4972918;28;20050;-72
2023/10/07 09:04:59;;;;;;;96.60;91.47;;;16.80;99.90;;;;;;4977187;28;20043;-71
2023/10/07 09:07:32;;;;;;;95.50;90.30;;;16.90;99.90;;;;;;4959114;28;20043;-72
2023/10/07 09:10:17;;;;;;;105.85;100.47;;;17.10;99.90;;;;;;4957731;29;20023;-71
2023/10/07 09:12:48;;;;;;;123.82;117.38;;;17.30;99.90;;;;;;4965709;28;20046;-72
2023/10/07 09:15:28;;;;;;;134.35;127.35;;;17.40;99.90;;;;;;4960732;28;20047;-71
2023/10/07 09:18:01;;;;;;;118.80;112.40;;;17.40;99.90;;;;;;4976890;28;20043;-72
2023/10/07 09:20:31;;;;;;;128.88;122.07;;;17.40;99.90;;;;;;4973999;28;20050;-71
2023/10/07 09:23:22;;;;;;;112.60;106.80;;;17.50;99.90;;;;;;4957360;28;20043;-71
2023/10/07 09:25:51;;;;;;;147.27;139.45;;;17.50;99.90;;;;;;4961997;28;20024;-72
2023/10/07 09:28:29;;;;;;;124.65;118.22;;;17.60;99.90;;;;;;4971095;28;20051;-72
2023/10/07 09:30:58;;;;;;;119.05;112.35;;;17.70;99.90;;;;;;4967537;28;20046;-71
2023/10/07 09:33:34;;;;;;;127.45;120.82;;;17.70;99.90;;;;;;4965116;28;20043;-72
2023/10/07 09:38:44;;;;;;;128.95;122.30;;;17.80;99.90;;;;;;4973074;28;20046;-72
2023/10/07 09:41:23;;;;;;;141.45;134.35;;;18.00;99.90;;;;;;4969983;28;20395;-72
2023/10/07 09:43:56;;;;;;;126.53;119.63;;;18.00;99.90;;;;;;4965091;28;20033;-72
2023/10/07 09:46:27;;;;;;;173.80;164.52;;;18.10;99.90;;;;;;4975147;28;20050;-72
2023/10/07 09:48:54;;;;;;;;;;;18.10;99.90;;;;;;4975461;28;20054;-72
2023/10/07 09:51:24;;;;;;;168.73;160.00;;;18.20;99.90;;;;;;4966879;28;19922;-72
2023/10/07 09:54:16;;;;;;;117.20;111.35;;;18.40;99.90;;;;;;4963818;28;20487;-72
2023/10/07 09:57:06;;;;;;;109.32;103.60;;;18.40;99.90;;;;;;4962391;28;20047;-72
2023/10/07 09:59:56;;;;;;;163.80;154.85;;;18.40;99.90;;;;;;4955738;29;20519;-72
2023/10/07 10:02:43;;;;;;;131.98;125.03;;;18.50;99.90;;;;;;4974739;28;20050;-72
2023/10/07 10:05:37;;;;;;;189.23;179.20;;;18.50;99.90;;;;;;4955595;28;20054;-72
2023/10/07 10:08:27;;;;;;;125.20;118.63;;;18.70;99.90;;;;;;4975055;28;20042;-72
2023/10/07 10:10:57;;;;;;;130.10;123.50;;;18.70;99.90;;;;;;4976105;28;20055;-72
2023/10/07 10:13:51;;;;;;;132.77;125.90;;;18.80;99.90;;;;;;4973749;28;20054;-72
2023/10/07 10:16:44;;;;;;;133.48;126.53;;;18.90;99.90;;;;;;4967270;28;20054;-71
2023/10/07 10:19:16;;;;;;;151.82;144.02;;;19.10;99.90;;;;;;4956791;29;20032;-72
2023/10/07 10:21:43;;;;;;;143.95;136.50;;;19.20;99.90;;;;;;4956071;28;21675;-72
2023/10/07 10:24:16;;;;;;;177.88;168.48;;;19.30;99.90;;;;;;4964893;28;20040;-72
2023/10/07 10:26:44;;;;;;;157.13;149.27;;;19.30;99.90;;;;;;4968698;28;20398;-72
2023/10/07 10:29:16;;;;;;;161.93;153.43;;;19.40;99.90;;;;;;4956376;28;20050;-72
2023/10/07 10:31:49;;;;;;;125.47;118.95;;;19.40;99.90;;;;;;4957726;28;20043;-72
2023/10/07 10:34:15;;;;;;;137.13;129.82;;;19.50;99.90;;;;;;4972125;28;20054;-72
2023/10/07 10:36:48;;;;;;;118.75;112.82;;;19.50;99.90;;;;;;4974850;28;20375;-72
2023/10/07 10:39:18;;;;;;;122.82;116.47;;;19.50;99.90;;;;;;4960955;28;20043;-72
2023/10/07 10:41:45;;;;;;;167.00;158.52;;;19.60;99.90;;;;;;4966764;28;20111;-74
2023/10/07 10:44:12;;;;;;;130.73;124.05;;;19.70;99.90;;;;;;4969776;28;20035;-72
2023/10/07 10:46:51;;;;;;;134.05;127.40;;;19.80;99.90;;;;;;4973816;28;20519;-72
2023/10/07 10:49:18;;;;;;;146.93;139.30;;;19.80;99.90;;;;;;4974534;28;20066;-72
2023/10/07 10:51:46;;;;;;;155.85;148.10;;;19.90;99.90;;;;;;4964136;28;20043;-72
2023/10/07 10:54:18;;;;;;;155.57;147.93;;;19.90;99.90;;;;;;4974664;28;20022;-72
2023/10/07 10:56:57;;;;;;;158.80;150.70;;;20.00;99.90;;;;;;4974178;28;20483;-72
2023/10/07 10:59:42;;;;;;;185.43;176.00;;;20.10;99.90;;;;;;4974173;28;20042;-72
2023/10/07 11:02:17;;;;;;;194.00;184.35;;;20.10;99.90;;;;;;4958147;28;20035;-72
2023/10/07 11:04:45;;;;;;;236.48;225.07;;;20.20;99.90;;;;;;4959616;28;20049;-72
2023/10/07 11:07:12;;;;;;;264.30;251.43;;;20.20;99.90;;;;;;4970833;28;20047;-72
2023/10/07 11:09:38;;;;;;;267.52;254.43;;;20.20;99.90;;;;;;4960657;28;20035;-71
2023/10/07 11:12:16;;;;;;;275.25;261.48;;;20.30;99.90;;;;;;4965159;28;20051;-72
2023/10/07 11:14:43;;;;;;;299.10;284.42;;;20.30;99.90;;;;;;4953725;29;20043;-70
2023/10/07 11:17:10;;;;;;;303.38;288.40;;;20.40;99.90;;;;;;4969064;28;20042;-72
2023/10/07 11:19:43;;;;;;;337.90;320.88;;;20.50;99.90;;;;;;4958866;28;20047;-71
2023/10/07 11:22:19;;;;;;;317.98;302.52;;;20.50;99.90;;;;;;4973526;28;20122;-72
2023/10/07 11:24:46;;;;;;;312.70;297.33;;;20.50;99.90;;;;;;4973642;28;20050;-72
2023/10/07 11:27:12;;;;;;;346.10;328.73;;;20.50;99.90;;;;;;4973056;28;20039;-72
2023/10/07 11:29:39;;;;;;;309.38;294.13;;;20.50;99.90;;;;;;4963934;28;20047;-72
2023/10/07 11:32:08;;;;;;;322.77;306.92;;;20.60;99.90;;;;;;4946079;28;20408;-72
2023/10/07 11:34:38;;;;;;;321.02;305.33;;;20.60;99.90;;;;;;4950288;29;20032;-72
2023/10/07 11:37:13;;;;;;;335.45;318.73;;;20.70;99.90;;;;;;4949979;29;20051;-72
2023/10/07 11:39:45;;;;;;;411.83;390.33;;;20.80;99.90;;;;;;4955062;28;20031;-72
2023/10/07 11:42:12;;;;;;;350.52;333.15;;;21.00;99.90;;;;;;4952367;28;20047;-72
2023/10/07 11:44:39;;;;;;;343.02;325.58;;;20.90;99.90;;;;;;4953269;28;20051;-72
2023/10/07 11:47:07;;;;;;;327.88;311.75;;;21.00;99.90;;;;;;4955806;28;20043;-72
2023/10/07 11:49:34;;;;;;;306.65;291.48;;;21.10;99.90;;;;;;4954833;28;20046;-72
2023/10/07 11:52:04;;;;;;;309.63;293.88;;;21.20;99.90;;;;;;4967967;28;20503;-72
2023/10/07 11:54:34;;;;;;;341.97;324.43;;;21.20;99.90;;;;;;4973816;28;20107;-72
2023/10/07 11:57:02;;;;;;;328.80;311.52;;;21.30;99.90;;;;;;4959567;28;20039;-72
2023/10/07 11:59:28;;;;;;;291.65;277.00;;;21.40;99.90;;;;;;4955614;28;20058;-72
2023/10/07 12:01:54;;;;;;;1999.90;999.90;;;21.40;99.90;;;;;;4963959;28;20039;-72
2023/10/07 12:04:21;;;;;;;1999.90;999.90;;;21.50;99.90;;;;;;4967938;28;20063;-71
2023/10/07 12:06:50;;;;;;;1999.90;999.90;;;21.50;99.90;;;;;;4966026;28;20046;-72
2023/10/07 12:09:21;;;;;;;1999.90;999.90;;;21.50;99.90;;;;;;4973447;28;20050;-72
2023/10/07 12:11:53;;;;;;;1999.90;999.90;;;21.60;99.90;;;;;;4968235;28;20047;-72
2023/10/07 12:14:20;;;;;;;1999.90;999.90;;;21.60;99.90;;;;;;4958106;28;20076;-72
2023/10/07 12:16:46;;;;;;;1999.90;999.90;;;21.60;99.90;;;;;;4965310;28;20046;-72
2023/10/07 12:19:17;;;;;;;1999.90;999.90;;;21.70;99.90;;;;;;4973057;28;20419;-72
2023/10/07 12:21:45;;;;;;;1999.90;999.90;;;21.80;99.90;;;;;;4961121;28;20047;-72
2023/10/07 12:24:11;;;;;;;1999.90;999.90;;;21.80;99.90;;;;;;4960208;28;20506;-72
2023/10/07 12:26:38;;;;;;;1999.90;999.90;;;21.90;99.80;;;;;;4962804;28;20050;-72
2023/10/07 12:29:06;;;;;;;1999.90;999.90;;;21.90;99.60;;;;;;4964385;28;20046;-72
2023/10/07 12:31:32;;;;;;;1999.90;999.90;;;21.90;99.10;;;;;;4970403;28;20061;-72
2023/10/07 12:33:59;;;;;;;1999.90;999.90;;;22.00;98.20;;;;;;4953759;28;20765;-72
2023/10/07 12:36:25;;;;;;;1999.90;999.90;;;22.10;97.80;;;;;;4965792;28;20035;-72
2023/10/07 12:38:51;;;;;;;1999.90;999.90;;;22.10;96.60;;;;;;4962137;28;20022;-72
2023/10/07 12:41:17;;;;;;;1999.90;999.90;;;22.10;96.40;;;;;;4965043;28;20037;-72
2023/10/07 12:43:43;;;;;;;1999.90;999.90;;;22.10;95.80;;;;;;4970783;28;20031;-72
2023/10/07 12:46:10;;;;;;;1999.90;999.90;;;22.20;96.20;;;;;;4953556;28;20108;-72
2023/10/07 12:48:40;;;;;;;1999.90;999.90;;;22.20;96.10;;;;;;4957681;28;20039;-72
2023/10/07 12:51:06;;;;;;;1999.90;999.90;;;22.30;96.40;;;;;;4967435;28;20510;-72
2023/10/07 12:53:33;;;;;;;1999.90;999.90;;;22.30;94.70;;;;;;4968238;28;20302;-72
2023/10/07 12:56:17;;;;;;;1999.90;999.90;;;22.40;95.10;;;;;;4959978;28;20499;-72
2023/10/07 12:58:46;;;;;;;1999.90;999.90;;;22.50;95.50;;;;;;4956352;28;20043;-72
2023/10/07 13:01:12;;;;;;;1999.90;999.90;;;22.50;94.50;;;;;;4960334;28;20057;-72
2023/10/07 13:03:44;;;;;;;1999.90;999.90;;;22.50;94.50;;;;;;4953363;29;20028;-72
2023/10/07 13:06:14;;;;;;;1999.90;999.90;;;22.60;95.00;;;;;;4962450;28;20023;-72
2023/10/07 13:08:40;;;;;;;1999.90;999.90;;;22.60;94.40;;;;;;4972636;28;20069;-72
2023/10/07 13:11:13;;;;;;;1999.90;999.90;;;22.60;94.80;;;;;;4965196;28;20035;-72
2023/10/07 13:13:45;;;;;;;1999.90;999.90;;;22.60;95.10;;;;;;4953493;28;20054;-72
2023/10/07 13:16:11;;;;;;;1999.90;999.90;;;22.70;94.90;;;;;;4970101;28;20035;-72
2023/10/07 13:18:40;;;;;;;1999.90;999.90;;;22.80;94.80;;;;;;4970622;28;20038;-72
2023/10/07 13:21:13;;;;;;;1999.90;999.90;;;22.80;94.40;;;;;;4965030;28;20381;-72
2023/10/07 13:23:40;;;;;;;1999.90;999.90;;;22.80;94.20;;;;;;4953007;28;20035;-72